sensor_id;sensor_type;location;lat;lon;timestamp;P1;durP1;ratioP1;P2;durP2;ratioP2
39524;SDS011;25203;50.754;6.978;2023-09-07T00:00:33;10.23;;;8.35;;
39524;SDS011;25203;50.754;6.978;2023-09-07T00:02:34;12.43;;;8.52;;
39524;SDS011;25203;50.754;6.978;2023-09-07T00:04:34;11.98;;;9.32;;
39524;SDS011;25203;50.754;6.978;2023-09-07T00:06:35;10.00;;;8.48;;
39524;SDS011;25203;50.754;6.978;2023-09-07T00:08:36;12.45;;;8.32;;
39524;SDS011;25203;50.754;6.978;2023-09-07T00:10:36;12.57;;;8.82;;
39524;SDS011;25203;50.754;6.978;2023-09-07T00:12:37;10.85;;;8.32;;
39524;SDS011;25203;50.754;6.978;2023-09-07T00:14:39;10.63;;;8.68;;
39524;SDS011;25203;50.754;6.978;2023-09-07T00:16:39;11.32;;;8.40;;
39524;SDS011;25203;50.754;6.978;2023-09-07T00:18:40;12.38;;;9.63;;
39524;SDS011;25203;50.754;6.978;2023-09-07T00:20:40;13.23;;;8.27;;
39524;SDS011;25203;50.754;6.978;2023-09-07T00:22:41;13.80;;;8.77;;
39524;SDS011;25203;50.754;6.978;2023-09-07T00:24:42;14.30;;;8.90;;
39524;SDS011;25203;50.754;6.978;2023-09-07T00:26:43;12.13;;;9.40;;
39524;SDS011;25203;50.754;6.978;2023-09-07T00:28:45;11.93;;;9.70;;
39524;SDS011;25203;50.754;6.978;2023-09-07T00:30:45;12.35;;;8.55;;
39524;SDS011;25203;50.754;6.978;2023-09-07T00:32:46;8.75;;;7.85;;
39524;SDS011;25203;50.754;6.978;2023-09-07T00:34:46;10.27;;;8.15;;
39524;SDS011;25203;50.754;6.978;2023-09-07T00:36:47;12.98;;;9.07;;
39524;SDS011;25203;50.754;6.978;2023-09-07T00:38:47;9.57;;;8.52;;
39524;SDS011;25203;50.754;6.978;2023-09-07T00:40:48;9.25;;;8.25;;
39524;SDS011;25203;50.754;6.978;2023-09-07T00:42:49;9.70;;;8.70;;
39524;SDS011;25203;50.754;6.978;2023-09-07T00:44:49;12.07;;;9.90;;
39524;SDS011;25203;50.754;6.978;2023-09-07T00:46:50;12.23;;;9.57;;
39524;SDS011;25203;50.754;6.978;2023-09-07T00:48:50;14.75;;;9.32;;
39524;SDS011;25203;50.754;6.978;2023-09-07T00:50:51;12.38;;;8.90;;
39524;SDS011;25203;50.754;6.978;2023-09-07T00:52:52;9.77;;;8.85;;
39524;SDS011;25203;50.754;6.978;2023-09-07T00:54:52;9.23;;;8.32;;
39524;SDS011;25203;50.754;6.978;2023-09-07T00:56:54;11.95;;;8.25;;
39524;SDS011;25203;50.754;6.978;2023-09-07T00:58:55;8.18;;;7.20;;
39524;SDS011;25203;50.754;6.978;2023-09-07T01:00:58;10.77;;;7.65;;
39524;SDS011;25203;50.754;6.978;2023-09-07T01:02:59;11.27;;;8.45;;
39524;SDS011;25203;50.754;6.978;2023-09-07T01:05:01;8.85;;;7.95;;
39524;SDS011;25203;50.754;6.978;2023-09-07T01:07:09;9.20;;;8.30;;
39524;SDS011;25203;50.754;6.978;2023-09-07T01:09:19;8.80;;;7.90;;
39524;SDS011;25203;50.754;6.978;2023-09-07T01:11:21;9.70;;;7.80;;
39524;SDS011;25203;50.754;6.978;2023-09-07T01:13:25;11.57;;;7.97;;
39524;SDS011;25203;50.754;6.978;2023-09-07T01:15:25;8.55;;;7.45;;
39524;SDS011;25203;50.754;6.978;2023-09-07T01:17:26;9.80;;;8.52;;
39524;SDS011;25203;50.754;6.978;2023-09-07T01:19:27;9.68;;;7.88;;
39524;SDS011;25203;50.754;6.978;2023-09-07T01:21:34;13.05;;;8.20;;
39524;SDS011;25203;50.754;6.978;2023-09-07T01:25:37;10.38;;;8.63;;
39524;SDS011;25203;50.754;6.978;2023-09-07T01:27:40;11.05;;;8.75;;
39524;SDS011;25203;50.754;6.978;2023-09-07T01:29:41;9.93;;;8.20;;
39524;SDS011;25203;50.754;6.978;2023-09-07T01:31:41;13.43;;;8.68;;
39524;SDS011;25203;50.754;6.978;2023-09-07T01:33:42;11.95;;;9.07;;
39524;SDS011;25203;50.754;6.978;2023-09-07T01:35:42;9.68;;;8.57;;
39524;SDS011;25203;50.754;6.978;2023-09-07T01:37:44;10.35;;;9.05;;
39524;SDS011;25203;50.754;6.978;2023-09-07T01:39:45;12.98;;;9.02;;
39524;SDS011;25203;50.754;6.978;2023-09-07T01:41:45;12.43;;;8.48;;
39524;SDS011;25203;50.754;6.978;2023-09-07T01:43:46;10.63;;;8.48;;
39524;SDS011;25203;50.754;6.978;2023-09-07T01:45:47;9.77;;;8.20;;
39524;SDS011;25203;50.754;6.978;2023-09-07T01:47:47;10.38;;;8.30;;
39524;SDS011;25203;50.754;6.978;2023-09-07T01:49:48;13.18;;;8.70;;
39524;SDS011;25203;50.754;6.978;2023-09-07T01:51:50;12.05;;;8.57;;
39524;SDS011;25203;50.754;6.978;2023-09-07T01:53:52;10.40;;;9.30;;
39524;SDS011;25203;50.754;6.978;2023-09-07T01:55:53;13.35;;;11.93;;
39524;SDS011;25203;50.754;6.978;2023-09-07T01:57:55;16.00;;;11.52;;
39524;SDS011;25203;50.754;6.978;2023-09-07T01:59:56;15.02;;;12.10;;
39524;SDS011;25203;50.754;6.978;2023-09-07T02:01:58;14.25;;;11.23;;
39524;SDS011;25203;50.754;6.978;2023-09-07T02:03:58;12.63;;;11.25;;
39524;SDS011;25203;50.754;6.978;2023-09-07T02:05:59;15.27;;;11.07;;
39524;SDS011;25203;50.754;6.978;2023-09-07T02:07:59;14.55;;;10.38;;
39524;SDS011;25203;50.754;6.978;2023-09-07T02:10:01;14.38;;;9.88;;
39524;SDS011;25203;50.754;6.978;2023-09-07T02:12:03;11.98;;;10.52;;
39524;SDS011;25203;50.754;6.978;2023-09-07T02:14:05;13.90;;;10.50;;
39524;SDS011;25203;50.754;6.978;2023-09-07T02:16:05;12.73;;;10.48;;
39524;SDS011;25203;50.754;6.978;2023-09-07T02:18:06;10.10;;;9.05;;
39524;SDS011;25203;50.754;6.978;2023-09-07T02:20:07;10.35;;;8.77;;
39524;SDS011;25203;50.754;6.978;2023-09-07T02:22:10;11.52;;;9.23;;
39524;SDS011;25203;50.754;6.978;2023-09-07T02:24:11;13.07;;;9.40;;
39524;SDS011;25203;50.754;6.978;2023-09-07T02:26:12;11.82;;;8.93;;
39524;SDS011;25203;50.754;6.978;2023-09-07T02:28:12;9.90;;;8.77;;
39524;SDS011;25203;50.754;6.978;2023-09-07T02:30:13;11.40;;;9.80;;
39524;SDS011;25203;50.754;6.978;2023-09-07T02:32:14;10.50;;;9.48;;
39524;SDS011;25203;50.754;6.978;2023-09-07T02:34:14;11.90;;;10.10;;
39524;SDS011;25203;50.754;6.978;2023-09-07T02:36:15;12.77;;;9.80;;
39524;SDS011;25203;50.754;6.978;2023-09-07T02:38:15;10.63;;;9.02;;
39524;SDS011;25203;50.754;6.978;2023-09-07T02:40:16;10.65;;;8.05;;
39524;SDS011;25203;50.754;6.978;2023-09-07T02:42:17;8.13;;;7.40;;
39524;SDS011;25203;50.754;6.978;2023-09-07T02:44:17;8.43;;;7.57;;
39524;SDS011;25203;50.754;6.978;2023-09-07T02:46:18;9.25;;;7.10;;
39524;SDS011;25203;50.754;6.978;2023-09-07T02:48:18;10.15;;;7.55;;
39524;SDS011;25203;50.754;6.978;2023-09-07T02:50:19;9.95;;;7.07;;
39524;SDS011;25203;50.754;6.978;2023-09-07T02:52:20;9.05;;;8.15;;
39524;SDS011;25203;50.754;6.978;2023-09-07T02:54:20;10.65;;;8.82;;
39524;SDS011;25203;50.754;6.978;2023-09-07T02:56:21;13.43;;;9.23;;
39524;SDS011;25203;50.754;6.978;2023-09-07T02:58:22;9.95;;;8.95;;
39524;SDS011;25203;50.754;6.978;2023-09-07T03:00:23;8.57;;;7.57;;
39524;SDS011;25203;50.754;6.978;2023-09-07T03:02:24;9.80;;;8.27;;
39524;SDS011;25203;50.754;6.978;2023-09-07T03:04:24;8.68;;;7.78;;
39524;SDS011;25203;50.754;6.978;2023-09-07T03:06:25;9.73;;;7.68;;
39524;SDS011;25203;50.754;6.978;2023-09-07T03:08:26;8.45;;;7.35;;
39524;SDS011;25203;50.754;6.978;2023-09-07T03:10:26;11.48;;;7.80;;
39524;SDS011;25203;50.754;6.978;2023-09-07T03:12:27;12.00;;;8.00;;
39524;SDS011;25203;50.754;6.978;2023-09-07T03:14:28;16.27;;;8.77;;
39524;SDS011;25203;50.754;6.978;2023-09-07T03:16:28;11.25;;;8.93;;
39524;SDS011;25203;50.754;6.978;2023-09-07T03:18:30;10.30;;;8.57;;
39524;SDS011;25203;50.754;6.978;2023-09-07T03:20:33;8.60;;;7.68;;
39524;SDS011;25203;50.754;6.978;2023-09-07T03:22:34;9.18;;;8.05;;
39524;SDS011;25203;50.754;6.978;2023-09-07T03:24:35;9.23;;;8.32;;
39524;SDS011;25203;50.754;6.978;2023-09-07T03:26:35;9.95;;;8.23;;
39524;SDS011;25203;50.754;6.978;2023-09-07T03:28:36;8.77;;;7.82;;
39524;SDS011;25203;50.754;6.978;2023-09-07T03:30:36;10.93;;;8.63;;
39524;SDS011;25203;50.754;6.978;2023-09-07T03:32:38;11.70;;;7.95;;
39524;SDS011;25203;50.754;6.978;2023-09-07T03:34:38;10.65;;;8.73;;
39524;SDS011;25203;50.754;6.978;2023-09-07T03:36:39;8.77;;;7.95;;
39524;SDS011;25203;50.754;6.978;2023-09-07T03:38:40;10.25;;;8.95;;
39524;SDS011;25203;50.754;6.978;2023-09-07T03:40:40;9.07;;;7.60;;
39524;SDS011;25203;50.754;6.978;2023-09-07T03:42:41;10.60;;;8.05;;
39524;SDS011;25203;50.754;6.978;2023-09-07T03:44:43;13.27;;;10.50;;
39524;SDS011;25203;50.754;6.978;2023-09-07T03:46:44;12.07;;;10.35;;
39524;SDS011;25203;50.754;6.978;2023-09-07T03:48:44;14.73;;;10.70;;
39524;SDS011;25203;50.754;6.978;2023-09-07T03:50:45;16.25;;;12.45;;
39524;SDS011;25203;50.754;6.978;2023-09-07T03:52:45;19.67;;;12.93;;
39524;SDS011;25203;50.754;6.978;2023-09-07T03:54:46;20.63;;;15.05;;
39524;SDS011;25203;50.754;6.978;2023-09-07T03:56:46;13.70;;;12.40;;
39524;SDS011;25203;50.754;6.978;2023-09-07T03:58:47;11.70;;;9.98;;
39524;SDS011;25203;50.754;6.978;2023-09-07T04:00:48;10.13;;;9.07;;
39524;SDS011;25203;50.754;6.978;2023-09-07T04:02:48;12.38;;;10.90;;
39524;SDS011;25203;50.754;6.978;2023-09-07T04:04:49;15.80;;;14.07;;
39524;SDS011;25203;50.754;6.978;2023-09-07T04:06:54;26.88;;;12.45;;
39524;SDS011;25203;50.754;6.978;2023-09-07T04:08:54;21.45;;;16.38;;
39524;SDS011;25203;50.754;6.978;2023-09-07T04:10:55;17.65;;;15.77;;
39524;SDS011;25203;50.754;6.978;2023-09-07T04:12:55;20.77;;;15.95;;
39524;SDS011;25203;50.754;6.978;2023-09-07T04:14:56;22.60;;;15.27;;
39524;SDS011;25203;50.754;6.978;2023-09-07T04:16:57;18.85;;;14.55;;
39524;SDS011;25203;50.754;6.978;2023-09-07T04:18:58;16.25;;;14.55;;
39524;SDS011;25203;50.754;6.978;2023-09-07T04:21:05;15.88;;;12.07;;
39524;SDS011;25203;50.754;6.978;2023-09-07T04:23:08;11.95;;;10.50;;
39524;SDS011;25203;50.754;6.978;2023-09-07T04:25:09;11.35;;;9.75;;
39524;SDS011;25203;50.754;6.978;2023-09-07T04:27:09;11.27;;;9.70;;
39524;SDS011;25203;50.754;6.978;2023-09-07T04:29:10;12.35;;;10.18;;
39524;SDS011;25203;50.754;6.978;2023-09-07T04:31:12;11.88;;;9.00;;
39524;SDS011;25203;50.754;6.978;2023-09-07T04:33:13;9.48;;;8.52;;
39524;SDS011;25203;50.754;6.978;2023-09-07T04:35:14;12.77;;;9.10;;
39524;SDS011;25203;50.754;6.978;2023-09-07T04:37:14;10.18;;;9.02;;
39524;SDS011;25203;50.754;6.978;2023-09-07T04:39:15;10.15;;;8.20;;
39524;SDS011;25203;50.754;6.978;2023-09-07T04:41:16;12.30;;;8.68;;
39524;SDS011;25203;50.754;6.978;2023-09-07T04:43:17;9.88;;;8.10;;
39524;SDS011;25203;50.754;6.978;2023-09-07T04:45:17;9.40;;;8.25;;
39524;SDS011;25203;50.754;6.978;2023-09-07T04:47:18;12.32;;;9.23;;
39524;SDS011;25203;50.754;6.978;2023-09-07T04:49:18;13.48;;;8.77;;
39524;SDS011;25203;50.754;6.978;2023-09-07T04:51:19;9.73;;;8.73;;
39524;SDS011;25203;50.754;6.978;2023-09-07T04:53:21;11.60;;;8.23;;
39524;SDS011;25203;50.754;6.978;2023-09-07T04:55:22;9.63;;;7.78;;
39524;SDS011;25203;50.754;6.978;2023-09-07T04:57:23;9.23;;;8.02;;
39524;SDS011;25203;50.754;6.978;2023-09-07T04:59:23;11.10;;;8.90;;
39524;SDS011;25203;50.754;6.978;2023-09-07T05:01:24;11.68;;;9.13;;
39524;SDS011;25203;50.754;6.978;2023-09-07T05:17:25;13.10;;;8.40;;
39524;SDS011;25203;50.754;6.978;2023-09-07T05:19:25;8.55;;;7.65;;
39524;SDS011;25203;50.754;6.978;2023-09-07T05:21:26;9.30;;;7.75;;
39524;SDS011;25203;50.754;6.978;2023-09-07T05:23:27;8.50;;;7.60;;
39524;SDS011;25203;50.754;6.978;2023-09-07T05:25:28;10.55;;;7.63;;
39524;SDS011;25203;50.754;6.978;2023-09-07T05:27:28;7.90;;;7.10;;
39524;SDS011;25203;50.754;6.978;2023-09-07T05:29:29;9.65;;;7.13;;
39524;SDS011;25203;50.754;6.978;2023-09-07T05:31:29;8.30;;;7.38;;
39524;SDS011;25203;50.754;6.978;2023-09-07T05:33:30;11.80;;;7.43;;
39524;SDS011;25203;50.754;6.978;2023-09-07T05:35:31;13.98;;;8.95;;
39524;SDS011;25203;50.754;6.978;2023-09-07T05:37:32;10.48;;;9.40;;
39524;SDS011;25203;50.754;6.978;2023-09-07T05:39:33;21.50;;;10.43;;
39524;SDS011;25203;50.754;6.978;2023-09-07T05:41:33;13.25;;;11.07;;
39524;SDS011;25203;50.754;6.978;2023-09-07T05:43:34;21.63;;;11.48;;
39524;SDS011;25203;50.754;6.978;2023-09-07T05:45:35;12.07;;;10.50;;
39524;SDS011;25203;50.754;6.978;2023-09-07T05:47:38;14.40;;;12.90;;
39524;SDS011;25203;50.754;6.978;2023-09-07T05:49:38;12.23;;;10.88;;
39524;SDS011;25203;50.754;6.978;2023-09-07T05:51:39;12.63;;;10.32;;
39524;SDS011;25203;50.754;6.978;2023-09-07T05:53:40;14.60;;;10.60;;
39524;SDS011;25203;50.754;6.978;2023-09-07T05:55:40;13.27;;;10.90;;
39524;SDS011;25203;50.754;6.978;2023-09-07T05:57:41;10.57;;;9.55;;
39524;SDS011;25203;50.754;6.978;2023-09-07T05:59:41;11.00;;;9.18;;
39524;SDS011;25203;50.754;6.978;2023-09-07T06:01:42;12.45;;;10.27;;
39524;SDS011;25203;50.754;6.978;2023-09-07T06:03:43;12.02;;;9.38;;
39524;SDS011;25203;50.754;6.978;2023-09-07T06:05:43;10.82;;;9.70;;
39524;SDS011;25203;50.754;6.978;2023-09-07T06:07:44;9.27;;;8.35;;
39524;SDS011;25203;50.754;6.978;2023-09-07T06:09:45;9.20;;;8.00;;
39524;SDS011;25203;50.754;6.978;2023-09-07T06:11:45;9.30;;;8.40;;
39524;SDS011;25203;50.754;6.978;2023-09-07T06:13:46;8.90;;;8.02;;
39524;SDS011;25203;50.754;6.978;2023-09-07T06:15:47;8.43;;;7.60;;
39524;SDS011;25203;50.754;6.978;2023-09-07T06:17:47;8.25;;;7.45;;
39524;SDS011;25203;50.754;6.978;2023-09-07T06:19:49;7.97;;;7.10;;
39524;SDS011;25203;50.754;6.978;2023-09-07T06:21:50;10.00;;;8.73;;
39524;SDS011;25203;50.754;6.978;2023-09-07T06:23:51;9.57;;;8.63;;
39524;SDS011;25203;50.754;6.978;2023-09-07T06:25:51;10.45;;;9.45;;
39524;SDS011;25203;50.754;6.978;2023-09-07T06:27:52;9.85;;;8.85;;
39524;SDS011;25203;50.754;6.978;2023-09-07T06:29:53;10.75;;;9.63;;
39524;SDS011;25203;50.754;6.978;2023-09-07T06:31:53;10.82;;;9.57;;
39524;SDS011;25203;50.754;6.978;2023-09-07T06:33:54;10.77;;;9.43;;
39524;SDS011;25203;50.754;6.978;2023-09-07T06:35:54;12.07;;;9.73;;
39524;SDS011;25203;50.754;6.978;2023-09-07T06:37:57;10.05;;;8.52;;
39524;SDS011;25203;50.754;6.978;2023-09-07T06:39:57;10.20;;;7.72;;
39524;SDS011;25203;50.754;6.978;2023-09-07T06:41:58;9.80;;;8.80;;
39524;SDS011;25203;50.754;6.978;2023-09-07T06:43:58;10.60;;;9.50;;
39524;SDS011;25203;50.754;6.978;2023-09-07T06:46:02;12.02;;;9.10;;
39524;SDS011;25203;50.754;6.978;2023-09-07T06:48:05;11.20;;;8.98;;
39524;SDS011;25203;50.754;6.978;2023-09-07T06:50:06;10.43;;;8.77;;
39524;SDS011;25203;50.754;6.978;2023-09-07T06:52:07;9.45;;;8.52;;
39524;SDS011;25203;50.754;6.978;2023-09-07T06:54:07;10.18;;;6.88;;
39524;SDS011;25203;50.754;6.978;2023-09-07T06:56:08;9.82;;;6.05;;
39524;SDS011;25203;50.754;6.978;2023-09-07T06:58:10;10.38;;;5.82;;
39524;SDS011;25203;50.754;6.978;2023-09-07T07:00:10;6.93;;;5.47;;
39524;SDS011;25203;50.754;6.978;2023-09-07T07:02:12;8.70;;;4.80;;
39524;SDS011;25203;50.754;6.978;2023-09-07T07:04:12;10.18;;;4.43;;
39524;SDS011;25203;50.754;6.978;2023-09-07T07:06:13;8.75;;;4.88;;
39524;SDS011;25203;50.754;6.978;2023-09-07T07:08:13;5.82;;;4.82;;
39524;SDS011;25203;50.754;6.978;2023-09-07T07:10:14;8.90;;;4.50;;
39524;SDS011;25203;50.754;6.978;2023-09-07T07:12:14;8.82;;;4.97;;
39524;SDS011;25203;50.754;6.978;2023-09-07T07:14:15;6.20;;;4.50;;
39524;SDS011;25203;50.754;6.978;2023-09-07T07:16:16;6.75;;;4.22;;
39524;SDS011;25203;50.754;6.978;2023-09-07T07:18:17;6.22;;;4.30;;
39524;SDS011;25203;50.754;6.978;2023-09-07T07:20:17;5.75;;;4.40;;
39524;SDS011;25203;50.754;6.978;2023-09-07T07:22:18;7.55;;;4.93;;
39524;SDS011;25203;50.754;6.978;2023-09-07T07:24:19;8.65;;;4.60;;
39524;SDS011;25203;50.754;6.978;2023-09-07T07:26:20;5.47;;;4.10;;
39524;SDS011;25203;50.754;6.978;2023-09-07T07:28:20;8.40;;;5.03;;
39524;SDS011;25203;50.754;6.978;2023-09-07T07:30:21;8.27;;;5.18;;
39524;SDS011;25203;50.754;6.978;2023-09-07T07:32:22;5.72;;;4.18;;
39524;SDS011;25203;50.754;6.978;2023-09-07T07:34:22;10.38;;;4.38;;
39524;SDS011;25203;50.754;6.978;2023-09-07T07:36:23;7.15;;;4.30;;
39524;SDS011;25203;50.754;6.978;2023-09-07T07:38:23;5.03;;;3.67;;
39524;SDS011;25203;50.754;6.978;2023-09-07T07:40:24;6.22;;;3.72;;
39524;SDS011;25203;50.754;6.978;2023-09-07T07:42:25;5.53;;;3.42;;
39524;SDS011;25203;50.754;6.978;2023-09-07T07:44:25;5.18;;;3.70;;
39524;SDS011;25203;50.754;6.978;2023-09-07T07:46:26;4.30;;;3.42;;
39524;SDS011;25203;50.754;6.978;2023-09-07T07:48:27;4.40;;;3.28;;
39524;SDS011;25203;50.754;6.978;2023-09-07T07:50:29;5.65;;;3.50;;
39524;SDS011;25203;50.754;6.978;2023-09-07T07:52:30;4.05;;;3.35;;
39524;SDS011;25203;50.754;6.978;2023-09-07T07:54:30;9.40;;;3.67;;
39524;SDS011;25203;50.754;6.978;2023-09-07T07:56:33;6.03;;;3.13;;
39524;SDS011;25203;50.754;6.978;2023-09-07T07:58:34;6.25;;;3.30;;
39524;SDS011;25203;50.754;6.978;2023-09-07T08:00:35;5.20;;;2.88;;
39524;SDS011;25203;50.754;6.978;2023-09-07T08:02:38;6.43;;;3.35;;
39524;SDS011;25203;50.754;6.978;2023-09-07T08:04:39;3.40;;;3.10;;
39524;SDS011;25203;50.754;6.978;2023-09-07T08:06:40;7.50;;;3.60;;
39524;SDS011;25203;50.754;6.978;2023-09-07T08:08:40;4.07;;;2.65;;
39524;SDS011;25203;50.754;6.978;2023-09-07T08:10:41;3.28;;;2.78;;
39524;SDS011;25203;50.754;6.978;2023-09-07T08:12:41;3.90;;;2.80;;
39524;SDS011;25203;50.754;6.978;2023-09-07T08:14:44;7.13;;;3.30;;
39524;SDS011;25203;50.754;6.978;2023-09-07T08:16:44;7.85;;;3.40;;
39524;SDS011;25203;50.754;6.978;2023-09-07T08:18:45;7.80;;;4.07;;
39524;SDS011;25203;50.754;6.978;2023-09-07T08:20:46;5.93;;;3.30;;
39524;SDS011;25203;50.754;6.978;2023-09-07T08:22:46;7.68;;;3.13;;
39524;SDS011;25203;50.754;6.978;2023-09-07T08:24:47;7.88;;;2.90;;
39524;SDS011;25203;50.754;6.978;2023-09-07T08:26:48;5.78;;;3.17;;
39524;SDS011;25203;50.754;6.978;2023-09-07T08:28:54;4.25;;;3.17;;
39524;SDS011;25203;50.754;6.978;2023-09-07T08:30:54;9.93;;;3.72;;
39524;SDS011;25203;50.754;6.978;2023-09-07T08:32:56;5.78;;;3.22;;
39524;SDS011;25203;50.754;6.978;2023-09-07T08:34:57;5.32;;;3.80;;
39524;SDS011;25203;50.754;6.978;2023-09-07T08:37:00;5.07;;;3.10;;
39524;SDS011;25203;50.754;6.978;2023-09-07T08:39:01;7.45;;;3.10;;
39524;SDS011;25203;50.754;6.978;2023-09-07T08:41:07;7.35;;;2.97;;
39524;SDS011;25203;50.754;6.978;2023-09-07T08:43:08;4.82;;;2.85;;
39524;SDS011;25203;50.754;6.978;2023-09-07T08:45:13;6.10;;;3.35;;
39524;SDS011;25203;50.754;6.978;2023-09-07T08:47:15;5.75;;;3.55;;
39524;SDS011;25203;50.754;6.978;2023-09-07T08:49:18;3.63;;;2.95;;
39524;SDS011;25203;50.754;6.978;2023-09-07T08:51:19;3.72;;;2.78;;
39524;SDS011;25203;50.754;6.978;2023-09-07T08:53:22;4.82;;;3.10;;
39524;SDS011;25203;50.754;6.978;2023-09-07T08:55:23;5.40;;;3.42;;
39524;SDS011;25203;50.754;6.978;2023-09-07T08:57:24;4.10;;;2.90;;
39524;SDS011;25203;50.754;6.978;2023-09-07T08:59:25;6.38;;;3.15;;
39524;SDS011;25203;50.754;6.978;2023-09-07T09:01:27;7.00;;;3.67;;
39524;SDS011;25203;50.754;6.978;2023-09-07T09:03:31;7.45;;;3.10;;
39524;SDS011;25203;50.754;6.978;2023-09-07T09:05:32;7.28;;;2.80;;
39524;SDS011;25203;50.754;6.978;2023-09-07T09:07:34;6.00;;;3.03;;
39524;SDS011;25203;50.754;6.978;2023-09-07T09:09:35;5.82;;;2.90;;
39524;SDS011;25203;50.754;6.978;2023-09-07T09:11:35;3.50;;;2.80;;
39524;SDS011;25203;50.754;6.978;2023-09-07T09:13:36;5.50;;;3.10;;
39524;SDS011;25203;50.754;6.978;2023-09-07T09:15:37;5.32;;;2.85;;
39524;SDS011;25203;50.754;6.978;2023-09-07T09:17:37;4.35;;;2.70;;
39524;SDS011;25203;50.754;6.978;2023-09-07T09:19:38;5.18;;;2.80;;
39524;SDS011;25203;50.754;6.978;2023-09-07T09:21:39;4.88;;;3.00;;
39524;SDS011;25203;50.754;6.978;2023-09-07T09:23:40;6.20;;;2.67;;
39524;SDS011;25203;50.754;6.978;2023-09-07T09:25:41;5.43;;;2.83;;
39524;SDS011;25203;50.754;6.978;2023-09-07T09:27:42;7.07;;;2.85;;
39524;SDS011;25203;50.754;6.978;2023-09-07T09:29:42;6.35;;;2.60;;
39524;SDS011;25203;50.754;6.978;2023-09-07T09:31:44;5.00;;;2.90;;
39524;SDS011;25203;50.754;6.978;2023-09-07T09:33:48;4.47;;;3.17;;
39524;SDS011;25203;50.754;6.978;2023-09-07T09:35:52;4.38;;;2.83;;
39524;SDS011;25203;50.754;6.978;2023-09-07T09:37:54;5.00;;;3.00;;
39524;SDS011;25203;50.754;6.978;2023-09-07T09:39:55;5.43;;;3.10;;
39524;SDS011;25203;50.754;6.978;2023-09-07T09:41:57;3.90;;;2.83;;
39524;SDS011;25203;50.754;6.978;2023-09-07T09:43:59;5.13;;;2.92;;
39524;SDS011;25203;50.754;6.978;2023-09-07T09:46:02;6.05;;;2.65;;
39524;SDS011;25203;50.754;6.978;2023-09-07T09:48:04;3.70;;;2.92;;
39524;SDS011;25203;50.754;6.978;2023-09-07T09:50:06;3.72;;;2.88;;
39524;SDS011;25203;50.754;6.978;2023-09-07T09:52:10;6.65;;;3.47;;
39524;SDS011;25203;50.754;6.978;2023-09-07T09:54:13;4.60;;;2.70;;
39524;SDS011;25203;50.754;6.978;2023-09-07T09:56:14;3.70;;;2.85;;
39524;SDS011;25203;50.754;6.978;2023-09-07T09:58:15;4.75;;;2.85;;
39524;SDS011;25203;50.754;6.978;2023-09-07T10:00:16;5.80;;;2.70;;
39524;SDS011;25203;50.754;6.978;2023-09-07T10:02:26;5.68;;;2.83;;
39524;SDS011;25203;50.754;6.978;2023-09-07T10:04:26;4.72;;;2.58;;
39524;SDS011;25203;50.754;6.978;2023-09-07T10:06:29;2.67;;;2.47;;
39524;SDS011;25203;50.754;6.978;2023-09-07T10:08:29;4.45;;;2.45;;
39524;SDS011;25203;50.754;6.978;2023-09-07T10:10:34;4.18;;;2.53;;
39524;SDS011;25203;50.754;6.978;2023-09-07T10:12:40;5.05;;;2.63;;
39524;SDS011;25203;50.754;6.978;2023-09-07T10:14:44;6.47;;;3.33;;
39524;SDS011;25203;50.754;6.978;2023-09-07T10:16:51;6.22;;;2.83;;
39524;SDS011;25203;50.754;6.978;2023-09-07T10:18:55;6.35;;;2.88;;
39524;SDS011;25203;50.754;6.978;2023-09-07T10:20:59;7.13;;;2.97;;
39524;SDS011;25203;50.754;6.978;2023-09-07T10:23:03;4.00;;;2.72;;
39524;SDS011;25203;50.754;6.978;2023-09-07T10:25:04;4.07;;;2.80;;
39524;SDS011;25203;50.754;6.978;2023-09-07T10:27:09;2.85;;;2.65;;
39524;SDS011;25203;50.754;6.978;2023-09-07T10:29:12;8.68;;;3.03;;
39524;SDS011;25203;50.754;6.978;2023-09-07T10:31:14;3.00;;;2.60;;
39524;SDS011;25203;50.754;6.978;2023-09-07T10:33:19;3.67;;;3.00;;
39524;SDS011;25203;50.754;6.978;2023-09-07T10:35:20;3.63;;;2.47;;
39524;SDS011;25203;50.754;6.978;2023-09-07T10:37:28;3.47;;;2.72;;
39524;SDS011;25203;50.754;6.978;2023-09-07T10:39:32;5.07;;;2.95;;
39524;SDS011;25203;50.754;6.978;2023-09-07T10:41:39;5.45;;;3.08;;
39524;SDS011;25203;50.754;6.978;2023-09-07T10:43:49;4.80;;;3.55;;
39524;SDS011;25203;50.754;6.978;2023-09-07T10:45:58;5.38;;;3.33;;
39524;SDS011;25203;50.754;6.978;2023-09-07T10:48:00;5.45;;;3.15;;
39524;SDS011;25203;50.754;6.978;2023-09-07T10:50:03;5.95;;;2.70;;
39524;SDS011;25203;50.754;6.978;2023-09-07T10:52:04;6.93;;;3.38;;
39524;SDS011;25203;50.754;6.978;2023-09-07T10:54:13;5.97;;;3.38;;
39524;SDS011;25203;50.754;6.978;2023-09-07T10:56:14;6.45;;;3.30;;
39524;SDS011;25203;50.754;6.978;2023-09-07T10:58:23;4.45;;;3.35;;
39524;SDS011;25203;50.754;6.978;2023-09-07T11:00:28;5.20;;;3.53;;
39524;SDS011;25203;50.754;6.978;2023-09-07T11:02:29;5.57;;;3.50;;
39524;SDS011;25203;50.754;6.978;2023-09-07T11:04:29;4.43;;;3.40;;
39524;SDS011;25203;50.754;6.978;2023-09-07T11:06:30;3.33;;;3.03;;
39524;SDS011;25203;50.754;6.978;2023-09-07T11:08:31;9.32;;;3.55;;
39524;SDS011;25203;50.754;6.978;2023-09-07T11:10:33;5.70;;;3.15;;
39524;SDS011;25203;50.754;6.978;2023-09-07T11:12:39;6.20;;;3.22;;
39524;SDS011;25203;50.754;6.978;2023-09-07T11:14:40;8.85;;;3.50;;
39524;SDS011;25203;50.754;6.978;2023-09-07T11:16:41;4.68;;;2.65;;
39524;SDS011;25203;50.754;6.978;2023-09-07T11:18:44;6.10;;;3.67;;
39524;SDS011;25203;50.754;6.978;2023-09-07T11:20:46;5.38;;;4.00;;
39524;SDS011;25203;50.754;6.978;2023-09-07T11:22:47;5.40;;;3.40;;
39524;SDS011;25203;50.754;6.978;2023-09-07T11:24:47;7.00;;;3.17;;
39524;SDS011;25203;50.754;6.978;2023-09-07T11:26:48;7.45;;;3.40;;
39524;SDS011;25203;50.754;6.978;2023-09-07T11:28:48;3.92;;;3.03;;
39524;SDS011;25203;50.754;6.978;2023-09-07T11:30:54;3.45;;;2.72;;
39524;SDS011;25203;50.754;6.978;2023-09-07T11:33:02;7.57;;;3.90;;
39524;SDS011;25203;50.754;6.978;2023-09-07T11:35:04;5.50;;;3.10;;
39524;SDS011;25203;50.754;6.978;2023-09-07T11:37:08;9.60;;;3.60;;
39524;SDS011;25203;50.754;6.978;2023-09-07T11:39:08;9.23;;;3.85;;
39524;SDS011;25203;50.754;6.978;2023-09-07T11:41:12;5.18;;;3.38;;
39524;SDS011;25203;50.754;6.978;2023-09-07T11:43:13;3.55;;;3.22;;
39524;SDS011;25203;50.754;6.978;2023-09-07T11:45:15;6.28;;;3.58;;
39524;SDS011;25203;50.754;6.978;2023-09-07T11:47:17;4.72;;;3.17;;
39524;SDS011;25203;50.754;6.978;2023-09-07T11:49:18;6.60;;;3.63;;
39524;SDS011;25203;50.754;6.978;2023-09-07T11:51:21;4.82;;;3.35;;
39524;SDS011;25203;50.754;6.978;2023-09-07T11:53:22;7.75;;;3.78;;
39524;SDS011;25203;50.754;6.978;2023-09-07T11:55:22;7.18;;;3.50;;
39524;SDS011;25203;50.754;6.978;2023-09-07T11:57:23;7.10;;;3.38;;
39524;SDS011;25203;50.754;6.978;2023-09-07T11:59:24;3.80;;;3.25;;
39524;SDS011;25203;50.754;6.978;2023-09-07T12:01:25;6.28;;;3.35;;
39524;SDS011;25203;50.754;6.978;2023-09-07T12:03:27;3.63;;;2.88;;
39524;SDS011;25203;50.754;6.978;2023-09-07T12:05:30;8.50;;;3.40;;
39524;SDS011;25203;50.754;6.978;2023-09-07T12:07:30;8.40;;;3.13;;
39524;SDS011;25203;50.754;6.978;2023-09-07T12:09:31;5.85;;;3.20;;
39524;SDS011;25203;50.754;6.978;2023-09-07T12:11:32;3.67;;;3.30;;
39524;SDS011;25203;50.754;6.978;2023-09-07T12:13:33;6.30;;;3.25;;
39524;SDS011;25203;50.754;6.978;2023-09-07T12:15:34;5.10;;;3.25;;
39524;SDS011;25203;50.754;6.978;2023-09-07T12:17:35;7.93;;;3.38;;
39524;SDS011;25203;50.754;6.978;2023-09-07T12:19:35;4.97;;;3.65;;
39524;SDS011;25203;50.754;6.978;2023-09-07T12:21:36;4.32;;;3.08;;